sensor_id;sensor_type;location;lat;lon;timestamp;P1;durP1;ratioP1;P2;durP2;ratioP2
64923;SDS011;51436;44.692;39.214;2022-11-10T00:02:30;43.10;;;18.63;;
64923;SDS011;51436;44.692;39.214;2022-11-10T00:05:15;45.88;;;19.60;;
64923;SDS011;51436;44.692;39.214;2022-11-10T00:08:02;48.05;;;19.83;;
64923;SDS011;51436;44.692;39.214;2022-11-10T00:10:48;52.53;;;20.48;;
64923;SDS011;51436;44.692;39.214;2022-11-10T00:13:42;41.72;;;19.08;;
64923;SDS011;51436;44.692;39.214;2022-11-10T00:16:50;54.28;;;19.25;;
64923;SDS011;51436;44.692;39.214;2022-11-10T00:19:49;49.95;;;20.05;;
64923;SDS011;51436;44.692;39.214;2022-11-10T00:25:37;42.17;;;18.55;;
64923;SDS011;51436;44.692;39.214;2022-11-10T00:28:22;47.38;;;20.27;;
64923;SDS011;51436;44.692;39.214;2022-11-10T00:31:07;49.28;;;21.33;;
64923;SDS011;51436;44.692;39.214;2022-11-10T00:33:53;47.05;;;20.92;;
64923;SDS011;51436;44.692;39.214;2022-11-10T00:36:38;62.47;;;23.40;;
64923;SDS011;51436;44.692;39.214;2022-11-10T00:39:23;49.22;;;21.77;;
64923;SDS011;51436;44.692;39.214;2022-11-10T00:42:08;64.25;;;22.42;;
64923;SDS011;51436;44.692;39.214;2022-11-10T00:44:53;53.25;;;23.80;;
64923;SDS011;51436;44.692;39.214;2022-11-10T00:47:45;62.75;;;25.77;;
64923;SDS011;51436;44.692;39.214;2022-11-10T00:50:31;78.47;;;26.63;;
64923;SDS011;51436;44.692;39.214;2022-11-10T00:53:16;69.95;;;25.63;;
64923;SDS011;51436;44.692;39.214;2022-11-10T00:56:01;54.28;;;25.55;;
64923;SDS011;51436;44.692;39.214;2022-11-10T00:58:46;65.63;;;23.75;;
64923;SDS011;51436;44.692;39.214;2022-11-10T01:01:51;49.53;;;20.77;;
64923;SDS011;51436;44.692;39.214;2022-11-10T01:04:36;71.75;;;22.63;;
64923;SDS011;51436;44.692;39.214;2022-11-10T01:07:21;49.15;;;23.05;;
64923;SDS011;51436;44.692;39.214;2022-11-10T01:10:06;59.83;;;22.20;;
64923;SDS011;51436;44.692;39.214;2022-11-10T01:12:54;48.95;;;20.88;;
64923;SDS011;51436;44.692;39.214;2022-11-10T01:16:20;54.03;;;21.52;;
64923;SDS011;51436;44.692;39.214;2022-11-10T01:19:20;59.40;;;21.77;;
64923;SDS011;51436;44.692;39.214;2022-11-10T01:22:05;66.10;;;21.25;;
64923;SDS011;51436;44.692;39.214;2022-11-10T01:24:49;70.40;;;18.88;;
64923;SDS011;51436;44.692;39.214;2022-11-10T01:27:34;113.47;;;21.25;;
64923;SDS011;51436;44.692;39.214;2022-11-10T01:30:19;61.65;;;21.15;;
64923;SDS011;51436;44.692;39.214;2022-11-10T01:33:04;49.75;;;21.42;;
64923;SDS011;51436;44.692;39.214;2022-11-10T01:35:49;48.65;;;21.58;;
64923;SDS011;51436;44.692;39.214;2022-11-10T01:38:35;43.00;;;19.85;;
64923;SDS011;51436;44.692;39.214;2022-11-10T01:41:22;54.40;;;22.35;;
64923;SDS011;51436;44.692;39.214;2022-11-10T01:44:24;44.28;;;20.00;;
64923;SDS011;51436;44.692;39.214;2022-11-10T01:47:09;112.10;;;21.75;;
64923;SDS011;51436;44.692;39.214;2022-11-10T01:49:54;97.00;;;22.38;;
64923;SDS011;51436;44.692;39.214;2022-11-10T01:52:39;39.53;;;18.95;;
64923;SDS011;51436;44.692;39.214;2022-11-10T01:55:27;58.17;;;23.48;;
64923;SDS011;51436;44.692;39.214;2022-11-10T01:58:32;50.20;;;22.13;;
64923;SDS011;51436;44.692;39.214;2022-11-10T02:01:23;57.25;;;22.58;;
64923;SDS011;51436;44.692;39.214;2022-11-10T02:04:10;46.53;;;20.95;;
64923;SDS011;51436;44.692;39.214;2022-11-10T02:06:59;53.65;;;22.33;;
64923;SDS011;51436;44.692;39.214;2022-11-10T02:09:47;57.15;;;23.80;;
64923;SDS011;51436;44.692;39.214;2022-11-10T02:12:31;74.85;;;23.60;;
64923;SDS011;51436;44.692;39.214;2022-11-10T02:15:22;99.03;;;24.90;;
64923;SDS011;51436;44.692;39.214;2022-11-10T02:18:16;53.72;;;22.42;;
64923;SDS011;51436;44.692;39.214;2022-11-10T02:21:08;75.22;;;23.52;;
64923;SDS011;51436;44.692;39.214;2022-11-10T02:24:08;59.08;;;23.17;;
64923;SDS011;51436;44.692;39.214;2022-11-10T02:26:53;64.43;;;23.23;;
64923;SDS011;51436;44.692;39.214;2022-11-10T02:29:39;63.75;;;24.38;;
64923;SDS011;51436;44.692;39.214;2022-11-10T02:32:48;119.55;;;29.08;;
64923;SDS011;51436;44.692;39.214;2022-11-10T02:35:32;114.40;;;27.23;;
64923;SDS011;51436;44.692;39.214;2022-11-10T02:38:17;86.53;;;28.17;;
64923;SDS011;51436;44.692;39.214;2022-11-10T02:41:02;74.72;;;25.63;;
64923;SDS011;51436;44.692;39.214;2022-11-10T02:43:47;105.93;;;26.10;;
64923;SDS011;51436;44.692;39.214;2022-11-10T02:46:31;69.55;;;24.23;;
64923;SDS011;51436;44.692;39.214;2022-11-10T02:49:16;59.90;;;23.88;;
64923;SDS011;51436;44.692;39.214;2022-11-10T02:52:01;74.22;;;26.10;;
64923;SDS011;51436;44.692;39.214;2022-11-10T02:54:46;75.35;;;21.95;;
64923;SDS011;51436;44.692;39.214;2022-11-10T02:57:31;74.53;;;23.25;;
64923;SDS011;51436;44.692;39.214;2022-11-10T03:00:53;104.90;;;21.92;;
64923;SDS011;51436;44.692;39.214;2022-11-10T03:03:37;49.20;;;19.20;;
64923;SDS011;51436;44.692;39.214;2022-11-10T03:06:22;78.03;;;20.73;;
64923;SDS011;51436;44.692;39.214;2022-11-10T03:09:07;62.90;;;19.77;;
64923;SDS011;51436;44.692;39.214;2022-11-10T03:11:52;44.58;;;19.60;;
64923;SDS011;51436;44.692;39.214;2022-11-10T03:14:36;54.83;;;20.92;;
64923;SDS011;51436;44.692;39.214;2022-11-10T03:17:21;64.90;;;19.02;;
64923;SDS011;51436;44.692;39.214;2022-11-10T03:20:09;52.17;;;19.23;;
64923;SDS011;51436;44.692;39.214;2022-11-10T03:22:58;67.45;;;21.38;;
64923;SDS011;51436;44.692;39.214;2022-11-10T03:25:49;82.65;;;19.00;;
64923;SDS011;51436;44.692;39.214;2022-11-10T03:28:34;45.63;;;19.52;;
64923;SDS011;51436;44.692;39.214;2022-11-10T03:31:20;153.13;;;21.88;;
64923;SDS011;51436;44.692;39.214;2022-11-10T03:34:05;149.98;;;21.33;;
64923;SDS011;51436;44.692;39.214;2022-11-10T03:36:50;93.70;;;20.65;;
64923;SDS011;51436;44.692;39.214;2022-11-10T03:39:34;39.30;;;19.25;;
64923;SDS011;51436;44.692;39.214;2022-11-10T03:42:19;58.35;;;20.33;;
64923;SDS011;51436;44.692;39.214;2022-11-10T03:45:04;154.27;;;23.55;;
64923;SDS011;51436;44.692;39.214;2022-11-10T03:47:50;69.68;;;20.23;;
64923;SDS011;51436;44.692;39.214;2022-11-10T03:50:35;181.30;;;23.52;;
64923;SDS011;51436;44.692;39.214;2022-11-10T03:53:20;81.18;;;20.60;;
64923;SDS011;51436;44.692;39.214;2022-11-10T03:56:05;63.03;;;19.95;;
64923;SDS011;51436;44.692;39.214;2022-11-10T03:58:50;65.90;;;21.35;;
64923;SDS011;51436;44.692;39.214;2022-11-10T04:01:35;62.78;;;19.55;;
64923;SDS011;51436;44.692;39.214;2022-11-10T04:04:20;66.15;;;19.15;;
64923;SDS011;51436;44.692;39.214;2022-11-10T04:07:24;43.53;;;17.97;;
64923;SDS011;51436;44.692;39.214;2022-11-10T04:10:27;25.30;;;12.02;;
64923;SDS011;51436;44.692;39.214;2022-11-10T04:13:12;24.25;;;12.35;;
64923;SDS011;51436;44.692;39.214;2022-11-10T04:16:16;27.45;;;12.82;;
64923;SDS011;51436;44.692;39.214;2022-11-10T04:19:00;29.58;;;14.57;;
64923;SDS011;51436;44.692;39.214;2022-11-10T04:21:45;29.17;;;13.15;;
64923;SDS011;51436;44.692;39.214;2022-11-10T04:24:30;28.63;;;12.25;;
64923;SDS011;51436;44.692;39.214;2022-11-10T04:27:15;27.50;;;12.85;;
64923;SDS011;51436;44.692;39.214;2022-11-10T04:38:16;27.15;;;13.63;;
64923;SDS011;51436;44.692;39.214;2022-11-10T04:40:59;26.88;;;13.13;;
64923;SDS011;51436;44.692;39.214;2022-11-10T04:43:44;26.83;;;11.73;;
64923;SDS011;51436;44.692;39.214;2022-11-10T04:49:15;22.38;;;12.85;;
64923;SDS011;51436;44.692;39.214;2022-11-10T04:52:00;45.72;;;13.77;;
64923;SDS011;51436;44.692;39.214;2022-11-10T04:54:45;111.35;;;17.27;;
64923;SDS011;51436;44.692;39.214;2022-11-10T04:57:29;47.22;;;13.40;;
64923;SDS011;51436;44.692;39.214;2022-11-10T05:00:23;42.45;;;12.20;;
64923;SDS011;51436;44.692;39.214;2022-11-10T05:06:25;83.60;;;13.88;;
64923;SDS011;51436;44.692;39.214;2022-11-10T05:09:10;27.77;;;12.25;;
64923;SDS011;51436;44.692;39.214;2022-11-10T05:11:55;66.45;;;12.55;;
64923;SDS011;51436;44.692;39.214;2022-11-10T05:14:39;94.53;;;13.98;;
64923;SDS011;51436;44.692;39.214;2022-11-10T05:17:24;120.72;;;13.05;;
64923;SDS011;51436;44.692;39.214;2022-11-10T05:20:09;51.50;;;12.55;;
64923;SDS011;51436;44.692;39.214;2022-11-10T05:26:21;26.77;;;12.80;;
64923;SDS011;51436;44.692;39.214;2022-11-10T05:29:06;29.88;;;11.68;;
64923;SDS011;51436;44.692;39.214;2022-11-10T05:31:51;38.53;;;12.05;;
64923;SDS011;51436;44.692;39.214;2022-11-10T05:34:36;121.30;;;12.10;;
64923;SDS011;51436;44.692;39.214;2022-11-10T05:37:21;120.03;;;11.70;;
64923;SDS011;51436;44.692;39.214;2022-11-10T05:40:05;60.58;;;9.95;;
64923;SDS011;51436;44.692;39.214;2022-11-10T05:42:51;112.43;;;12.57;;
64923;SDS011;51436;44.692;39.214;2022-11-10T05:45:36;83.13;;;12.40;;
64923;SDS011;51436;44.692;39.214;2022-11-10T05:48:21;109.75;;;12.77;;
64923;SDS011;51436;44.692;39.214;2022-11-10T05:51:06;86.28;;;12.88;;
64923;SDS011;51436;44.692;39.214;2022-11-10T05:53:51;145.70;;;13.48;;
64923;SDS011;51436;44.692;39.214;2022-11-10T05:56:36;152.50;;;13.65;;
64923;SDS011;51436;44.692;39.214;2022-11-10T05:59:20;53.60;;;11.65;;
64923;SDS011;51436;44.692;39.214;2022-11-10T06:02:05;84.57;;;13.60;;
64923;SDS011;51436;44.692;39.214;2022-11-10T06:04:50;140.32;;;13.80;;
64923;SDS011;51436;44.692;39.214;2022-11-10T06:07:36;114.32;;;12.35;;
64923;SDS011;51436;44.692;39.214;2022-11-10T06:10:21;96.30;;;14.07;;
64923;SDS011;51436;44.692;39.214;2022-11-10T06:13:06;132.15;;;14.38;;
64923;SDS011;51436;44.692;39.214;2022-11-10T06:15:51;120.30;;;14.20;;
64923;SDS011;51436;44.692;39.214;2022-11-10T06:18:36;81.70;;;13.57;;
64923;SDS011;51436;44.692;39.214;2022-11-10T06:21:21;64.40;;;14.05;;
64923;SDS011;51436;44.692;39.214;2022-11-10T06:24:06;111.00;;;14.57;;
64923;SDS011;51436;44.692;39.214;2022-11-10T06:26:50;25.23;;;12.60;;
64923;SDS011;51436;44.692;39.214;2022-11-10T06:29:36;28.88;;;12.55;;
64923;SDS011;51436;44.692;39.214;2022-11-10T06:32:20;32.30;;;12.77;;
64923;SDS011;51436;44.692;39.214;2022-11-10T06:35:05;124.75;;;13.13;;
64923;SDS011;51436;44.692;39.214;2022-11-10T06:38:01;101.93;;;13.45;;
64923;SDS011;51436;44.692;39.214;2022-11-10T06:40:49;59.20;;;14.65;;
64923;SDS011;51436;44.692;39.214;2022-11-10T06:43:34;57.78;;;13.00;;
64923;SDS011;51436;44.692;39.214;2022-11-10T06:46:19;86.45;;;12.63;;
64923;SDS011;51436;44.692;39.214;2022-11-10T06:49:04;41.40;;;13.55;;
64923;SDS011;51436;44.692;39.214;2022-11-10T06:51:50;32.88;;;12.48;;
64923;SDS011;51436;44.692;39.214;2022-11-10T06:54:35;34.80;;;13.52;;
64923;SDS011;51436;44.692;39.214;2022-11-10T06:57:20;41.47;;;13.15;;
64923;SDS011;51436;44.692;39.214;2022-11-10T07:00:05;40.15;;;16.48;;
64923;SDS011;51436;44.692;39.214;2022-11-10T07:02:58;52.33;;;15.18;;
64923;SDS011;51436;44.692;39.214;2022-11-10T07:05:43;43.55;;;14.27;;
64923;SDS011;51436;44.692;39.214;2022-11-10T07:08:28;26.85;;;14.35;;
64923;SDS011;51436;44.692;39.214;2022-11-10T07:11:13;31.95;;;13.52;;
64923;SDS011;51436;44.692;39.214;2022-11-10T07:13:58;31.60;;;14.32;;
64923;SDS011;51436;44.692;39.214;2022-11-10T07:16:43;30.50;;;14.88;;
64923;SDS011;51436;44.692;39.214;2022-11-10T07:19:28;34.05;;;14.63;;
64923;SDS011;51436;44.692;39.214;2022-11-10T07:22:15;76.47;;;15.27;;
64923;SDS011;51436;44.692;39.214;2022-11-10T07:25:00;49.70;;;15.00;;
64923;SDS011;51436;44.692;39.214;2022-11-10T07:27:50;32.35;;;15.18;;
64923;SDS011;51436;44.692;39.214;2022-11-10T07:30:37;31.42;;;14.93;;
64923;SDS011;51436;44.692;39.214;2022-11-10T07:33:24;29.42;;;15.23;;
64923;SDS011;51436;44.692;39.214;2022-11-10T07:36:09;33.05;;;14.45;;
64923;SDS011;51436;44.692;39.214;2022-11-10T07:38:54;27.85;;;15.07;;
64923;SDS011;51436;44.692;39.214;2022-11-10T07:41:39;37.83;;;14.30;;
64923;SDS011;51436;44.692;39.214;2022-11-10T07:44:24;42.13;;;16.27;;
64923;SDS011;51436;44.692;39.214;2022-11-10T07:47:10;40.15;;;14.25;;
64923;SDS011;51436;44.692;39.214;2022-11-10T07:49:55;61.70;;;16.60;;
64923;SDS011;51436;44.692;39.214;2022-11-10T07:52:40;62.33;;;15.63;;
64923;SDS011;51436;44.692;39.214;2022-11-10T07:55:25;27.10;;;15.30;;
64923;SDS011;51436;44.692;39.214;2022-11-10T07:58:11;30.88;;;14.05;;
64923;SDS011;51436;44.692;39.214;2022-11-10T08:00:57;54.58;;;15.27;;
64923;SDS011;51436;44.692;39.214;2022-11-10T08:03:42;48.55;;;14.30;;
64923;SDS011;51436;44.692;39.214;2022-11-10T08:06:27;33.30;;;17.15;;
64923;SDS011;51436;44.692;39.214;2022-11-10T08:09:12;35.35;;;16.63;;
64923;SDS011;51436;44.692;39.214;2022-11-10T08:11:57;43.42;;;17.05;;
64923;SDS011;51436;44.692;39.214;2022-11-10T08:14:42;35.10;;;16.27;;
64923;SDS011;51436;44.692;39.214;2022-11-10T08:17:27;32.40;;;16.25;;
64923;SDS011;51436;44.692;39.214;2022-11-10T08:20:12;33.55;;;16.50;;
64923;SDS011;51436;44.692;39.214;2022-11-10T08:22:57;27.45;;;15.63;;
64923;SDS011;51436;44.692;39.214;2022-11-10T08:25:47;25.27;;;14.25;;
64923;SDS011;51436;44.692;39.214;2022-11-10T08:28:35;35.53;;;17.13;;
64923;SDS011;51436;44.692;39.214;2022-11-10T08:31:20;50.28;;;16.75;;
64923;SDS011;51436;44.692;39.214;2022-11-10T08:34:05;37.35;;;17.30;;
64923;SDS011;51436;44.692;39.214;2022-11-10T08:36:50;32.38;;;15.23;;
64923;SDS011;51436;44.692;39.214;2022-11-10T08:39:36;34.92;;;16.65;;
64923;SDS011;51436;44.692;39.214;2022-11-10T08:42:21;38.42;;;17.58;;
64923;SDS011;51436;44.692;39.214;2022-11-10T08:45:06;39.13;;;18.65;;
64923;SDS011;51436;44.692;39.214;2022-11-10T08:48:01;35.78;;;18.75;;
64923;SDS011;51436;44.692;39.214;2022-11-10T08:50:51;30.73;;;15.40;;
64923;SDS011;51436;44.692;39.214;2022-11-10T08:53:37;29.15;;;14.45;;
64923;SDS011;51436;44.692;39.214;2022-11-10T08:59:30;25.98;;;14.63;;
64923;SDS011;51436;44.692;39.214;2022-11-10T09:02:14;36.65;;;17.13;;
64923;SDS011;51436;44.692;39.214;2022-11-10T09:05:00;30.88;;;16.17;;
64923;SDS011;51436;44.692;39.214;2022-11-10T09:07:45;31.25;;;15.88;;
64923;SDS011;51436;44.692;39.214;2022-11-10T09:11:17;35.25;;;16.77;;
64923;SDS011;51436;44.692;39.214;2022-11-10T09:14:02;35.47;;;16.42;;
64923;SDS011;51436;44.692;39.214;2022-11-10T09:16:47;26.92;;;15.18;;
64923;SDS011;51436;44.692;39.214;2022-11-10T09:19:32;40.38;;;15.90;;
64923;SDS011;51436;44.692;39.214;2022-11-10T09:22:17;35.35;;;17.00;;
64923;SDS011;51436;44.692;39.214;2022-11-10T09:25:05;31.27;;;17.00;;
64923;SDS011;51436;44.692;39.214;2022-11-10T09:27:49;36.80;;;16.60;;
64923;SDS011;51436;44.692;39.214;2022-11-10T09:30:34;30.55;;;16.30;;
64923;SDS011;51436;44.692;39.214;2022-11-10T09:33:19;25.88;;;14.35;;
64923;SDS011;51436;44.692;39.214;2022-11-10T09:39:19;31.90;;;17.33;;
64923;SDS011;51436;44.692;39.214;2022-11-10T09:42:12;35.08;;;17.85;;
64923;SDS011;51436;44.692;39.214;2022-11-10T09:51:53;38.83;;;16.45;;
64923;SDS011;51436;44.692;39.214;2022-11-10T09:54:48;36.58;;;18.35;;
64923;SDS011;51436;44.692;39.214;2022-11-10T09:57:37;34.40;;;18.13;;
64923;SDS011;51436;44.692;39.214;2022-11-10T10:03:50;30.05;;;16.50;;
64923;SDS011;51436;44.692;39.214;2022-11-10T10:06:57;35.40;;;18.55;;
64923;SDS011;51436;44.692;39.214;2022-11-10T10:10:32;31.77;;;17.30;;
64923;SDS011;51436;44.692;39.214;2022-11-10T10:19:49;31.13;;;16.33;;
64923;SDS011;51436;44.692;39.214;2022-11-10T10:25:40;36.75;;;18.23;;
64923;SDS011;51436;44.692;39.214;2022-11-10T10:28:37;36.83;;;17.70;;
64923;SDS011;51436;44.692;39.214;2022-11-10T10:31:31;31.95;;;17.15;;
64923;SDS011;51436;44.692;39.214;2022-11-10T10:34:29;29.48;;;16.17;;
64923;SDS011;51436;44.692;39.214;2022-11-10T10:48:29;33.85;;;16.52;;
64923;SDS011;51436;44.692;39.214;2022-11-10T10:51:47;38.33;;;18.05;;
64923;SDS011;51436;44.692;39.214;2022-11-10T10:54:26;36.78;;;17.73;;
64923;SDS011;51436;44.692;39.214;2022-11-10T10:57:22;46.95;;;19.67;;
64923;SDS011;51436;44.692;39.214;2022-11-10T11:00:14;47.13;;;21.88;;
64923;SDS011;51436;44.692;39.214;2022-11-10T11:09:13;36.20;;;17.63;;
64923;SDS011;51436;44.692;39.214;2022-11-10T11:12:01;45.60;;;19.65;;
64923;SDS011;51436;44.692;39.214;2022-11-10T11:14:51;36.55;;;18.77;;
64923;SDS011;51436;44.692;39.214;2022-11-10T11:17:54;42.63;;;20.75;;
64923;SDS011;51436;44.692;39.214;2022-11-10T11:20:47;40.97;;;19.50;;
64923;SDS011;51436;44.692;39.214;2022-11-10T11:23:42;43.10;;;20.52;;
64923;SDS011;51436;44.692;39.214;2022-11-10T11:32:25;38.13;;;19.40;;
64923;SDS011;51436;44.692;39.214;2022-11-10T11:35:23;41.10;;;19.65;;
64923;SDS011;51436;44.692;39.214;2022-11-10T11:38:29;40.92;;;19.63;;
64923;SDS011;51436;44.692;39.214;2022-11-10T11:44:37;37.90;;;19.85;;
64923;SDS011;51436;44.692;39.214;2022-11-10T11:50:29;50.65;;;21.55;;
64923;SDS011;51436;44.692;39.214;2022-11-10T12:05:30;39.75;;;21.15;;
64923;SDS011;51436;44.692;39.214;2022-11-10T12:08:38;41.55;;;19.98;;
64923;SDS011;51436;44.692;39.214;2022-11-10T12:14:53;51.20;;;21.83;;
64923;SDS011;51436;44.692;39.214;2022-11-10T12:29:52;41.83;;;19.17;;
64923;SDS011;51436;44.692;39.214;2022-11-10T12:32:44;36.70;;;19.17;;
64923;SDS011;51436;44.692;39.214;2022-11-10T12:35:50;38.22;;;17.52;;
64923;SDS011;51436;44.692;39.214;2022-11-10T12:41:42;39.17;;;16.73;;
64923;SDS011;51436;44.692;39.214;2022-11-10T12:44:32;36.00;;;17.45;;
64923;SDS011;51436;44.692;39.214;2022-11-10T12:47:23;34.58;;;17.60;;
64923;SDS011;51436;44.692;39.214;2022-11-10T12:53:37;34.72;;;16.80;;
64923;SDS011;51436;44.692;39.214;2022-11-10T12:56:31;36.38;;;16.52;;
64923;SDS011;51436;44.692;39.214;2022-11-10T12:59:26;38.05;;;17.38;;
64923;SDS011;51436;44.692;39.214;2022-11-10T13:08:15;40.17;;;17.98;;
64923;SDS011;51436;44.692;39.214;2022-11-10T13:13:55;40.25;;;20.38;;
64923;SDS011;51436;44.692;39.214;2022-11-10T13:22:30;43.75;;;21.70;;
64923;SDS011;51436;44.692;39.214;2022-11-10T13:34:36;34.20;;;16.75;;
64923;SDS011;51436;44.692;39.214;2022-11-10T13:43:18;39.00;;;16.05;;
64923;SDS011;51436;44.692;39.214;2022-11-10T13:46:07;36.53;;;17.85;;
64923;SDS011;51436;44.692;39.214;2022-11-10T13:52:08;37.13;;;17.77;;
64923;SDS011;51436;44.692;39.214;2022-11-10T13:54:58;37.50;;;18.58;;
64923;SDS011;51436;44.692;39.214;2022-11-10T13:57:58;42.65;;;17.88;;
64923;SDS011;51436;44.692;39.214;2022-11-10T14:00:48;39.80;;;18.85;;
64923;SDS011;51436;44.692;39.214;2022-11-10T14:09:35;36.45;;;17.25;;
64923;SDS011;51436;44.692;39.214;2022-11-10T14:12:37;34.95;;;17.73;;
64923;SDS011;51436;44.692;39.214;2022-11-10T14:15:29;39.35;;;18.77;;
64923;SDS011;51436;44.692;39.214;2022-11-10T14:18:23;39.95;;;18.45;;
64923;SDS011;51436;44.692;39.214;2022-11-10T14:21:25;38.78;;;17.42;;
64923;SDS011;51436;44.692;39.214;2022-11-10T14:24:26;43.92;;;19.65;;
64923;SDS011;51436;44.692;39.214;2022-11-10T14:27:13;43.35;;;18.88;;
64923;SDS011;51436;44.692;39.214;2022-11-10T14:38:45;47.53;;;18.55;;
64923;SDS011;51436;44.692;39.214;2022-11-10T14:41:30;35.92;;;16.17;;
64923;SDS011;51436;44.692;39.214;2022-11-10T14:44:19;46.88;;;19.52;;
64923;SDS011;51436;44.692;39.214;2022-11-10T14:53:01;45.45;;;18.48;;
64923;SDS011;51436;44.692;39.214;2022-11-10T14:56:02;39.75;;;17.65;;
64923;SDS011;51436;44.692;39.214;2022-11-10T14:58:50;36.78;;;17.17;;
64923;SDS011;51436;44.692;39.214;2022-11-10T15:01:37;43.20;;;19.25;;
64923;SDS011;51436;44.692;39.214;2022-11-10T15:04:27;39.58;;;18.55;;
64923;SDS011;51436;44.692;39.214;2022-11-10T15:07:14;39.38;;;18.42;;
64923;SDS011;51436;44.692;39.214;2022-11-10T15:10:04;48.50;;;20.63;;
64923;SDS011;51436;44.692;39.214;2022-11-10T15:12:59;44.03;;;19.27;;
64923;SDS011;51436;44.692;39.214;2022-11-10T15:15:45;45.20;;;18.10;;
64923;SDS011;51436;44.692;39.214;2022-11-10T15:18:30;51.70;;;19.23;;
64923;SDS011;51436;44.692;39.214;2022-11-10T15:21:16;37.90;;;18.25;;
64923;SDS011;51436;44.692;39.214;2022-11-10T15:24:03;47.80;;;20.42;;
64923;SDS011;51436;44.692;39.214;2022-11-10T15:26:49;53.38;;;21.48;;
64923;SDS011;51436;44.692;39.214;2022-11-10T15:29:34;44.00;;;19.75;;
64923;SDS011;51436;44.692;39.214;2022-11-10T15:32:21;42.33;;;19.20;;
64923;SDS011;51436;44.692;39.214;2022-11-10T15:38:17;36.92;;;18.13;;
64923;SDS011;51436;44.692;39.214;2022-11-10T15:41:12;43.30;;;18.50;;
64923;SDS011;51436;44.692;39.214;2022-11-10T15:47:01;38.63;;;18.02;;
64923;SDS011;51436;44.692;39.214;2022-11-10T15:49:47;41.80;;;17.80;;
64923;SDS011;51436;44.692;39.214;2022-11-10T15:52:31;38.10;;;16.48;;
64923;SDS011;51436;44.692;39.214;2022-11-10T15:55:20;49.60;;;17.95;;
64923;SDS011;51436;44.692;39.214;2022-11-10T15:58:16;46.33;;;17.90;;
64923;SDS011;51436;44.692;39.214;2022-11-10T16:01:03;43.70;;;17.25;;
64923;SDS011;51436;44.692;39.214;2022-11-10T16:03:48;53.25;;;20.42;;
64923;SDS011;51436;44.692;39.214;2022-11-10T16:06:33;39.72;;;18.25;;
64923;SDS011;51436;44.692;39.214;2022-11-10T16:09:18;43.97;;;19.85;;
64923;SDS011;51436;44.692;39.214;2022-11-10T16:12:03;37.13;;;17.25;;
64923;SDS011;51436;44.692;39.214;2022-11-10T16:14:48;51.05;;;19.58;;
64923;SDS011;51436;44.692;39.214;2022-11-10T16:17:35;47.70;;;17.42;;
64923;SDS011;51436;44.692;39.214;2022-11-10T16:20:20;75.05;;;18.58;;
64923;SDS011;51436;44.692;39.214;2022-11-10T16:23:05;52.45;;;20.67;;
64923;SDS011;51436;44.692;39.214;2022-11-10T16:25:51;41.08;;;17.50;;
64923;SDS011;51436;44.692;39.214;2022-11-10T16:28:40;39.35;;;16.17;;
64923;SDS011;51436;44.692;39.214;2022-11-10T16:31:27;41.72;;;15.80;;
64923;SDS011;51436;44.692;39.214;2022-11-10T16:34:13;44.35;;;16.80;;
64923;SDS011;51436;44.692;39.214;2022-11-10T16:36:58;41.78;;;16.20;;
64923;SDS011;51436;44.692;39.214;2022-11-10T16:39:43;43.90;;;16.92;;
64923;SDS011;51436;44.692;39.214;2022-11-10T16:42:28;41.50;;;18.90;;
64923;SDS011;51436;44.692;39.214;2022-11-10T16:45:14;43.40;;;19.60;;
64923;SDS011;51436;44.692;39.214;2022-11-10T16:48:00;45.40;;;18.25;;
64923;SDS011;51436;44.692;39.214;2022-11-10T16:58:23;41.17;;;18.23;;
64923;SDS011;51436;44.692;39.214;2022-11-10T17:01:13;41.72;;;17.48;;
64923;SDS011;51436;44.692;39.214;2022-11-10T17:04:07;48.17;;;18.02;;
64923;SDS011;51436;44.692;39.214;2022-11-10T17:06:54;43.63;;;18.15;;
64923;SDS011;51436;44.692;39.214;2022-11-10T17:09:39;40.75;;;18.40;;
64923;SDS011;51436;44.692;39.214;2022-11-10T17:12:24;72.72;;;18.33;;
64923;SDS011;51436;44.692;39.214;2022-11-10T17:15:12;78.20;;;16.95;;
64923;SDS011;51436;44.692;39.214;2022-11-10T17:18:01;43.85;;;16.38;;
64923;SDS011;51436;44.692;39.214;2022-11-10T17:20:50;39.13;;;16.58;;
64923;SDS011;51436;44.692;39.214;2022-11-10T17:23:36;99.85;;;16.83;;
64923;SDS011;51436;44.692;39.214;2022-11-10T17:26:21;47.42;;;17.63;;
64923;SDS011;51436;44.692;39.214;2022-11-10T17:29:09;53.55;;;17.23;;
64923;SDS011;51436;44.692;39.214;2022-11-10T17:32:02;44.55;;;16.08;;
64923;SDS011;51436;44.692;39.214;2022-11-10T17:34:47;37.03;;;15.23;;
64923;SDS011;51436;44.692;39.214;2022-11-10T17:37:32;60.72;;;14.07;;
64923;SDS011;51436;44.692;39.214;2022-11-10T17:40:21;36.78;;;15.25;;
64923;SDS011;51436;44.692;39.214;2022-11-10T17:43:11;108.57;;;15.82;;
64923;SDS011;51436;44.692;39.214;2022-11-10T17:45:56;90.28;;;14.50;;
64923;SDS011;51436;44.692;39.214;2022-11-10T17:48:43;134.15;;;17.52;;
64923;SDS011;51436;44.692;39.214;2022-11-10T17:51:30;163.93;;;19.02;;
64923;SDS011;51436;44.692;39.214;2022-11-10T17:54:17;84.90;;;15.20;;
64923;SDS011;51436;44.692;39.214;2022-11-10T17:57:02;42.40;;;16.45;;
64923;SDS011;51436;44.692;39.214;2022-11-10T17:59:47;256.38;;;19.63;;
64923;SDS011;51436;44.692;39.214;2022-11-10T18:02:32;43.58;;;16.17;;
64923;SDS011;51436;44.692;39.214;2022-11-10T18:05:17;37.75;;;15.82;;
64923;SDS011;51436;44.692;39.214;2022-11-10T18:08:02;44.70;;;15.98;;
64923;SDS011;51436;44.692;39.214;2022-11-10T18:10:48;58.40;;;15.48;;
64923;SDS011;51436;44.692;39.214;2022-11-10T18:13:34;107.63;;;15.90;;
64923;SDS011;51436;44.692;39.214;2022-11-10T18:16:20;28.77;;;13.93;;
64923;SDS011;51436;44.692;39.214;2022-11-10T18:19:05;53.97;;;13.35;;
64923;SDS011;51436;44.692;39.214;2022-11-10T18:21:51;53.42;;;13.38;;
64923;SDS011;51436;44.692;39.214;2022-11-10T18:24:36;55.10;;;13.05;;
64923;SDS011;51436;44.692;39.214;2022-11-10T18:27:21;30.15;;;12.45;;
64923;SDS011;51436;44.692;39.214;2022-11-10T18:30:06;35.75;;;13.75;;
64923;SDS011;51436;44.692;39.214;2022-11-10T18:32:51;39.05;;;15.05;;
64923;SDS011;51436;44.692;39.214;2022-11-10T18:35:36;36.20;;;15.88;;
64923;SDS011;51436;44.692;39.214;2022-11-10T18:38:22;37.67;;;14.25;;
64923;SDS011;51436;44.692;39.214;2022-11-10T18:41:08;48.33;;;15.23;;
64923;SDS011;51436;44.692;39.214;2022-11-10T18:44:19;33.20;;;14.63;;
64923;SDS011;51436;44.692;39.214;2022-11-10T18:47:04;73.35;;;16.90;;
64923;SDS011;51436;44.692;39.214;2022-11-10T18:49:50;63.10;;;15.43;;
64923;SDS011;51436;44.692;39.214;2022-11-10T18:52:35;90.93;;;15.27;;
64923;SDS011;51436;44.692;39.214;2022-11-10T18:55:20;78.45;;;15.63;;
64923;SDS011;51436;44.692;39.214;2022-11-10T18:58:05;61.45;;;16.38;;
64923;SDS011;51436;44.692;39.214;2022-11-10T19:00:50;45.40;;;14.90;;
64923;SDS011;51436;44.692;39.214;2022-11-10T19:03:35;93.18;;;16.70;;
64923;SDS011;51436;44.692;39.214;2022-11-10T19:06:20;42.05;;;14.90;;
64923;SDS011;51436;44.692;39.214;2022-11-10T19:09:05;70.30;;;16.83;;